Portada
METAR-TAF:

METAR-TAF

Aeroports :

Joensuu, Finlàndia

latitud: 62-40N, longitud: 029-38E, altitud: 119 m

Observació

L'informe es va fer fa 27 minuts, a les 15:20 UTC
Vent 9 kt del Nord-Oest
Temperatura -7°C
Humitat 86%
Pressió 1008 hPa
Visibilitat 10 km o més
sense núvols per sota de 1500 mi sense presència de cumulonimbus.

METAR: EFJO 101520Z 32009KT CAVOK M07/M09 Q1008

Hora: 17:47 (15:47 UTC)

Pronòstic

L'informe es va fer fa 1 hora i 31 minuts, a les 14:16 UTC
Pronòstic vàlid del 10 a les 15 UTC al 10 a les 23 UTC
Vent 7 kt del Oest/Nord-Oest
Visibilitat 10 km o més
sense núvols per sota de 1500 mi sense presència de cumulonimbus.

TAF: EFJO 101416Z 1015/1023 30007KT CAVOK

Observacions i pronòstics meteorològics de més de 4000 aeroports (METAR i TAF).

Les estacions disponibles són els punts grocs i vermells al mapa.

Posi el ratolí al punt desitjat per veure el nom de l'estació.

Feu clic per veure les observacions i els pronòstics meteorològics.

Per canviar el mapa: feu clic els botons verds amb una creu de color negre per apropar; al botó verd amb un guió per allunyar la imatge; o en les fletxes verdes per a mapes adjacents.


METAR-TAF: